Terminal Aerodrome Forecast
Issued by NWS

Home | Current Version | Previous Version | Text Only | Print | Product List | Glossary On
Versions: 1 2 3 4 5 6 7 8 9 10 11 12 13 14 15 16 17 18 19 20 21 22 23 24 25 26 27 28 29 30 31 32 33 34 35 36 37 38 39 40 41 42 43
595
FTUS45 KSLC 141343 AAA
TAFLGU
TAF AMD
KLGU 141343Z 1414/1512 VRB03KT 1SM -SN BR OVC010
     FM141600 VRB03KT 4SM BR VCSH OVC020
     FM142300 32006KT 5SM -SHSN BR SCT005 BKN020=

USA.gov is the U.S. government's official web portal to all federal, state and local government web resources and services.